Time;durP1;ratioP1;P1;durP2;ratioP2;P2;SDS_P1;SDS_P2;PMS_P1;PMS_P2;Temp;Humidity;BMP_temperature;BMP_pressure;BME280_temperature;BME280_humidity;BME280_pressure;Samples;Min_cycle;Max_cycle;Signal;HPM_P1;HPM_P2
2023/10/30 00:02:18;;;;;;;17.30;8.95;;;;;;;;;;5072195;28;20636;-67
2023/10/30 00:04:46;;;;;;;18.25;9.38;;;;;;;;;;5072115;28;20040;-67
2023/10/30 00:07:13;;;;;;;18.88;9.13;;;;;;;;;;5072020;28;20040;-67
2023/10/30 00:09:40;;;;;;;20.80;8.57;;;;;;;;;;5072110;28;20106;-67
2023/10/30 00:12:08;;;;;;;18.90;9.40;;;;;;;;;;5074640;28;20493;-67
2023/10/30 00:14:36;;;;;;;19.17;9.10;;;;;;;;;;5075951;28;20545;-67
2023/10/30 00:17:04;;;;;;;20.08;9.52;;;;;;;;;;5075964;28;20048;-67
2023/10/30 00:19:32;;;;;;;19.88;9.55;;;;;;;;;;5074995;28;20047;-68
2023/10/30 00:22:00;;;;;;;15.65;8.98;;;;;;;;;;5076567;28;20466;-68
2023/10/30 00:24:29;;;;;;;18.00;9.43;;;;;;;;;;5078101;28;20048;-68
2023/10/30 00:26:57;;;;;;;18.33;8.88;;;;;;;;;;5075761;28;20043;-68
2023/10/30 00:29:25;;;;;;;19.55;9.30;;;;;;;;;;5058090;28;20040;-68
2023/10/30 00:31:53;;;;;;;18.38;8.48;;;;;;;;;;5074259;28;20113;-68
2023/10/30 00:34:20;;;;;;;18.33;9.07;;;;;;;;;;5075563;28;20036;-68
2023/10/30 00:36:48;;;;;;;16.67;8.95;;;;;;;;;;5074111;28;20094;-68
2023/10/30 00:39:15;;;;;;;23.55;9.25;;;;;;;;;;5074167;28;20056;-68
2023/10/30 00:41:43;;;;;;;18.42;9.20;;;;;;;;;;5075452;28;20493;-68
2023/10/30 00:44:10;;;;;;;17.17;9.18;;;;;;;;;;5074058;28;20139;-68
2023/10/30 00:46:38;;;;;;;20.60;9.23;;;;;;;;;;5074184;28;20044;-68
2023/10/30 00:49:05;;;;;;;20.92;9.20;;;;;;;;;;5075373;28;20067;-68
2023/10/30 00:51:33;;;;;;;20.25;9.65;;;;;;;;;;5074140;28;20048;-69
2023/10/30 00:54:00;;;;;;;17.88;10.60;;;;;;;;;;5073898;28;20044;-66
2023/10/30 00:56:28;;;;;;;22.10;11.15;;;;;;;;;;5056962;28;20075;-67
2023/10/30 00:58:55;;;;;;;18.65;9.90;;;;;;;;;;5073878;28;20473;-67
2023/10/30 01:01:25;;;;;;;19.13;10.07;;;;;;;;;;5057377;28;20087;-67
2023/10/30 01:03:52;;;;;;;16.95;9.73;;;;;;;;;;5073689;28;20053;-67
2023/10/30 01:06:20;;;;;;;15.65;9.15;;;;;;;;;;5075047;28;20161;-67
2023/10/30 01:08:47;;;;;;;21.60;9.55;;;;;;;;;;5075006;28;20048;-68
2023/10/30 01:11:15;;;;;;;17.83;8.48;;;;;;;;;;5085417;28;20566;-69
2023/10/30 01:13:43;;;;;;;17.00;9.10;;;;;;;;;;5093942;28;20093;-68
2023/10/30 01:16:11;;;;;;;19.15;8.25;;;;;;;;;;5093776;28;20105;-68
2023/10/30 01:18:39;;;;;;;18.23;8.70;;;;;;;;;;5093987;28;20039;-69
2023/10/30 01:21:10;;;;;;;20.42;9.50;;;;;;;;;;5093713;28;20040;-69
2023/10/30 01:23:38;;;;;;;17.30;9.45;;;;;;;;;;5093225;28;20044;-69
2023/10/30 01:26:05;;;;;;;18.27;8.50;;;;;;;;;;5093966;28;20472;-69
2023/10/30 01:28:33;;;;;;;19.15;9.15;;;;;;;;;;5093724;28;20413;-69
2023/10/30 01:31:00;;;;;;;14.75;8.93;;;;;;;;;;5094821;28;20047;-69
2023/10/30 01:33:28;;;;;;;16.25;9.10;;;;;;;;;;5093789;28;20549;-69
2023/10/30 01:35:56;;;;;;;21.02;9.45;;;;;;;;;;5093661;28;20039;-68
2023/10/30 01:38:23;;;;;;;20.70;9.32;;;;;;;;;;5093401;28;20126;-69
2023/10/30 01:40:51;;;;;;;21.45;9.95;;;;;;;;;;5093472;28;20040;-68
2023/10/30 01:43:48;;;;;;;19.90;9.80;;;;;;;;;;5093214;28;20044;-69
2023/10/30 01:46:16;;;;;;;19.65;9.88;;;;;;;;;;5080885;28;20457;-69
2023/10/30 01:48:46;;;;;;;20.58;9.60;;;;;;;;;;5093281;28;20070;-67
2023/10/30 01:51:14;;;;;;;18.02;9.23;;;;;;;;;;5076458;28;20082;-68
2023/10/30 01:53:42;;;;;;;16.77;9.10;;;;;;;;;;5093079;28;20046;-70
2023/10/30 01:56:11;;;;;;;17.60;9.07;;;;;;;;;;5094312;28;20047;-68
2023/10/30 01:58:38;;;;;;;18.40;9.70;;;;;;;;;;5076353;28;20123;-68
2023/10/30 02:01:06;;;;;;;19.13;9.45;;;;;;;;;;5092778;28;20120;-67
2023/10/30 02:03:34;;;;;;;22.08;9.20;;;;;;;;;;5094199;28;20436;-67
2023/10/30 02:06:02;;;;;;;19.95;9.45;;;;;;;;;;5094267;28;20486;-68
2023/10/30 02:08:29;;;;;;;19.98;9.55;;;;;;;;;;5094464;28;20036;-68
2023/10/30 02:10:57;;;;;;;17.65;10.07;;;;;;;;;;5092812;28;20110;-68
2023/10/30 02:13:24;;;;;;;23.15;10.15;;;;;;;;;;5092627;28;20123;-68
2023/10/30 02:15:53;;;;;;;19.25;9.32;;;;;;;;;;5094018;28;20040;-68
2023/10/30 02:18:20;;;;;;;20.23;9.57;;;;;;;;;;5092557;28;20535;-68
2023/10/30 02:20:48;;;;;;;18.60;9.23;;;;;;;;;;5092600;28;20476;-68
2023/10/30 02:23:16;;;;;;;14.48;9.40;;;;;;;;;;5092386;28;20040;-70
2023/10/30 02:25:43;;;;;;;18.00;9.57;;;;;;;;;;5093776;28;20040;-68
2023/10/30 02:28:11;;;;;;;23.65;10.40;;;;;;;;;;5092334;28;20520;-68
2023/10/30 02:30:38;;;;;;;21.20;10.70;;;;;;;;;;5093975;28;20048;-67
2023/10/30 02:33:06;;;;;;;22.50;9.93;;;;;;;;;;5092146;28;20068;-68
2023/10/30 02:35:34;;;;;;;19.35;9.82;;;;;;;;;;5091811;28;20067;-68
2023/10/30 02:38:02;;;;;;;18.77;10.57;;;;;;;;;;5092281;28;20094;-68
2023/10/30 02:40:29;;;;;;;24.38;10.23;;;;;;;;;;5092352;28;20044;-68
2023/10/30 02:42:58;;;;;;;21.00;10.30;;;;;;;;;;5093642;28;20058;-68
2023/10/30 02:45:25;;;;;;;21.85;10.23;;;;;;;;;;5093323;28;20431;-68
2023/10/30 02:47:53;;;;;;;21.30;10.05;;;;;;;;;;5092092;28;20040;-68
2023/10/30 02:50:20;;;;;;;21.65;9.55;;;;;;;;;;5091936;28;20086;-68
2023/10/30 02:52:49;;;;;;;19.80;9.80;;;;;;;;;;5093295;28;20114;-68
2023/10/30 02:55:16;;;;;;;15.35;9.57;;;;;;;;;;5091726;28;20052;-68
2023/10/30 02:57:44;;;;;;;18.63;9.43;;;;;;;;;;5092019;28;20036;-69
2023/10/30 03:00:11;;;;;;;19.05;9.43;;;;;;;;;;5091631;28;20044;-69
2023/10/30 03:02:39;;;;;;;19.50;9.65;;;;;;;;;;5092041;28;20050;-69
2023/10/30 03:05:07;;;;;;;17.00;9.88;;;;;;;;;;5091974;28;20048;-69
2023/10/30 03:07:35;;;;;;;15.85;9.30;;;;;;;;;;5093043;28;20039;-69
2023/10/30 03:10:02;;;;;;;16.83;9.52;;;;;;;;;;5091042;28;20036;-68
2023/10/30 03:12:30;;;;;;;17.80;9.60;;;;;;;;;;5071406;28;20490;-68
2023/10/30 03:14:57;;;;;;;18.83;9.00;;;;;;;;;;5071418;28;20036;-68
2023/10/30 03:17:25;;;;;;;16.15;8.80;;;;;;;;;;5071397;28;20049;-69
2023/10/30 03:19:52;;;;;;;19.85;9.30;;;;;;;;;;5071316;28;20064;-68
2023/10/30 03:22:20;;;;;;;18.70;9.77;;;;;;;;;;5054751;28;20101;-68
2023/10/30 03:24:47;;;;;;;16.92;9.32;;;;;;;;;;5072661;28;20049;-68
2023/10/30 03:27:15;;;;;;;16.50;9.25;;;;;;;;;;5071232;28;20037;-68
2023/10/30 03:29:42;;;;;;;19.52;9.48;;;;;;;;;;5072700;28;20124;-68
2023/10/30 03:32:10;;;;;;;22.27;10.27;;;;;;;;;;5071394;28;20045;-68
2023/10/30 03:34:37;;;;;;;19.52;10.30;;;;;;;;;;5071188;28;20498;-68
2023/10/30 03:37:05;;;;;;;23.70;10.70;;;;;;;;;;5071221;28;20075;-68
2023/10/30 03:39:33;;;;;;;18.75;10.02;;;;;;;;;;5071009;28;20077;-66
2023/10/30 03:42:00;;;;;;;20.88;9.40;;;;;;;;;;5070995;28;20087;-68
2023/10/30 03:44:29;;;;;;;22.15;9.80;;;;;;;;;;5072473;28;20106;-68
2023/10/30 03:46:56;;;;;;;21.98;10.05;;;;;;;;;;5076646;28;20052;-67
2023/10/30 03:49:24;;;;;;;20.38;10.15;;;;;;;;;;5075128;28;20403;-67
2023/10/30 03:51:52;;;;;;;18.52;9.88;;;;;;;;;;5075105;28;20048;-68
2023/10/30 03:54:19;;;;;;;19.48;10.65;;;;;;;;;;5076272;28;20450;-68
2023/10/30 03:56:47;;;;;;;17.98;9.90;;;;;;;;;;5076348;28;20037;-68
2023/10/30 03:59:16;;;;;;;23.15;10.55;;;;;;;;;;5076330;28;20564;-68
2023/10/30 04:01:43;;;;;;;22.17;10.18;;;;;;;;;;5075925;28;20032;-68
2023/10/30 04:04:11;;;;;;;20.75;9.90;;;;;;;;;;5075988;28;20082;-68
2023/10/30 04:06:39;;;;;;;21.05;10.13;;;;;;;;;;5074554;28;20051;-68
2023/10/30 04:09:06;;;;;;;19.58;10.45;;;;;;;;;;5076119;28;20047;-68
2023/10/30 04:11:34;;;;;;;22.05;10.85;;;;;;;;;;5075821;28;20567;-69
2023/10/30 04:14:01;;;;;;;19.27;11.13;;;;;;;;;;5075888;28;20402;-69
2023/10/30 04:16:29;;;;;;;20.33;10.50;;;;;;;;;;5075918;28;20049;-67
2023/10/30 04:18:57;;;;;;;20.10;10.32;;;;;;;;;;5075726;28;20431;-68
2023/10/30 04:21:25;;;;;;;20.02;10.20;;;;;;;;;;5075528;28;20052;-67
2023/10/30 04:23:52;;;;;;;22.83;9.70;;;;;;;;;;5075301;28;20394;-69
2023/10/30 04:26:20;;;;;;;19.55;10.40;;;;;;;;;;5074380;28;20434;-68
2023/10/30 04:28:47;;;;;;;19.05;9.77;;;;;;;;;;5074637;28;20111;-69
2023/10/30 04:31:15;;;;;;;18.48;9.48;;;;;;;;;;5074510;28;20051;-69
2023/10/30 04:33:42;;;;;;;17.02;9.38;;;;;;;;;;5075565;28;20094;-69
2023/10/30 04:36:10;;;;;;;20.77;9.15;;;;;;;;;;5075396;28;20040;-69
2023/10/30 04:38:38;;;;;;;14.88;8.85;;;;;;;;;;5075695;28;20071;-69
2023/10/30 04:41:05;;;;;;;17.95;9.30;;;;;;;;;;5075533;28;20060;-69
2023/10/30 04:43:33;;;;;;;16.40;8.75;;;;;;;;;;5075494;28;20047;-69
2023/10/30 04:46:01;;;;;;;20.02;9.93;;;;;;;;;;5075336;28;20063;-69
2023/10/30 04:48:30;;;;;;;26.13;9.50;;;;;;;;;;5074052;28;20039;-67
2023/10/30 04:50:58;;;;;;;18.25;9.30;;;;;;;;;;5078336;28;20048;-70
2023/10/30 04:53:27;;;;;;;19.75;9.27;;;;;;;;;;5083937;28;20039;-70
2023/10/30 04:55:57;;;;;;;21.15;9.65;;;;;;;;;;5083952;28;20121;-70
2023/10/30 04:58:24;;;;;;;19.98;9.15;;;;;;;;;;5082137;28;20082;-70
2023/10/30 05:00:52;;;;;;;18.10;9.18;;;;;;;;;;5084191;28;20036;-70
2023/10/30 05:03:19;;;;;;;21.80;9.30;;;;;;;;;;5077725;28;20058;-72
2023/10/30 05:05:47;;;;;;;17.88;8.32;;;;;;;;;;5074854;28;20090;-72
2023/10/30 05:08:15;;;;;;;14.88;8.90;;;;;;;;;;5075120;28;20135;-72
2023/10/30 05:10:42;;;;;;;24.00;9.57;;;;;;;;;;5074706;28;20040;-71
2023/10/30 05:13:10;;;;;;;18.38;9.20;;;;;;;;;;5074891;28;20047;-72
2023/10/30 05:15:37;;;;;;;20.73;10.43;;;;;;;;;;5074875;28;20128;-71
2023/10/30 05:18:05;;;;;;;24.65;10.25;;;;;;;;;;5074784;28;20070;-72
2023/10/30 05:20:32;;;;;;;17.20;9.43;;;;;;;;;;5074796;28;20120;-72
2023/10/30 05:23:00;;;;;;;19.00;9.27;;;;;;;;;;5074963;28;20044;-72
2023/10/30 05:25:27;;;;;;;19.40;10.15;;;;;;;;;;5074933;28;20047;-72
2023/10/30 05:28:09;;;;;;;19.45;9.45;;;;;;;;;;5074760;28;20080;-72
2023/10/30 05:30:37;;;;;;;24.55;10.27;;;;;;;;;;5073655;28;20127;-71
2023/10/30 05:33:05;;;;;;;22.55;10.35;;;;;;;;;;5074749;28;20036;-72
2023/10/30 05:35:33;;;;;;;19.63;8.95;;;;;;;;;;5074514;28;20048;-72
2023/10/30 05:38:00;;;;;;;24.27;9.88;;;;;;;;;;5074610;28;20128;-73
2023/10/30 05:40:28;;;;;;;18.25;9.73;;;;;;;;;;5074572;28;20047;-73
2023/10/30 05:42:55;;;;;;;20.58;10.30;;;;;;;;;;5074270;28;20040;-74
2023/10/30 05:45:23;;;;;;;20.63;10.90;;;;;;;;;;5074287;28;20036;-72
2023/10/30 05:47:50;;;;;;;23.90;11.05;;;;;;;;;;5072844;28;20045;-73
2023/10/30 05:50:18;;;;;;;29.83;10.70;;;;;;;;;;5073378;28;20127;-71
2023/10/30 05:52:46;;;;;;;21.17;10.55;;;;;;;;;;5074162;28;20052;-70
2023/10/30 05:55:13;;;;;;;14.40;9.00;;;;;;;;;;5073478;28;20049;-71
2023/10/30 05:57:44;;;;;;;22.58;9.98;;;;;;;;;;5074176;28;20040;-70
2023/10/30 06:00:13;;;;;;;23.88;10.82;;;;;;;;;;5074064;28;20040;-71
2023/10/30 06:02:43;;;;;;;20.08;10.55;;;;;;;;;;5072249;28;20037;-71
2023/10/30 06:05:14;;;;;;;19.48;10.60;;;;;;;;;;5072815;28;20720;-71
2023/10/30 06:07:43;;;;;;;19.35;10.35;;;;;;;;;;5073848;28;20540;-71
2023/10/30 06:10:11;;;;;;;20.50;10.02;;;;;;;;;;5073040;28;20090;-71
2023/10/30 06:12:39;;;;;;;24.02;11.70;;;;;;;;;;5073696;28;20127;-71
2023/10/30 06:15:07;;;;;;;20.75;10.65;;;;;;;;;;5072622;28;20040;-71
2023/10/30 06:17:35;;;;;;;25.27;11.13;;;;;;;;;;5073597;28;20055;-71
2023/10/30 06:20:03;;;;;;;25.92;11.35;;;;;;;;;;5074079;28;20041;-70
2023/10/30 06:22:31;;;;;;;22.70;12.23;;;;;;;;;;5073608;28;20037;-71
2023/10/30 06:25:00;;;;;;;23.95;10.25;;;;;;;;;;5073694;28;20053;-72
2023/10/30 06:27:28;;;;;;;20.73;10.20;;;;;;;;;;5073518;28;20538;-71
2023/10/30 06:29:56;;;;;;;21.08;10.95;;;;;;;;;;5073684;28;20052;-71
2023/10/30 06:32:23;;;;;;;18.15;10.55;;;;;;;;;;5073579;28;20044;-71
2023/10/30 06:34:51;;;;;;;20.00;10.20;;;;;;;;;;5073507;28;20123;-72
2023/10/30 06:37:18;;;;;;;22.52;10.45;;;;;;;;;;5073367;28;20045;-72
2023/10/30 06:39:46;;;;;;;21.73;10.88;;;;;;;;;;5073427;28;20044;-71
2023/10/30 06:42:14;;;;;;;20.42;10.90;;;;;;;;;;5072100;28;20068;-71
2023/10/30 06:44:41;;;;;;;22.15;11.20;;;;;;;;;;5073306;28;20090;-71
2023/10/30 06:47:09;;;;;;;20.48;10.77;;;;;;;;;;5073304;28;20045;-74
2023/10/30 06:49:36;;;;;;;18.95;10.52;;;;;;;;;;5073154;28;20046;-70
2023/10/30 06:52:04;;;;;;;23.48;10.65;;;;;;;;;;5071732;28;20050;-71
2023/10/30 06:54:31;;;;;;;21.15;10.75;;;;;;;;;;5072932;28;20053;-70
2023/10/30 06:56:59;;;;;;;25.65;10.82;;;;;;;;;;5072798;28;20355;-70
2023/10/30 06:59:27;;;;;;;24.95;11.10;;;;;;;;;;5072859;28;20040;-71
2023/10/30 07:01:54;;;;;;;25.95;10.38;;;;;;;;;;5072921;28;20045;-71
2023/10/30 07:04:22;;;;;;;57.63;13.15;;;;;;;;;;5071741;28;20036;-70
2023/10/30 07:06:50;;;;;;;23.42;10.07;;;;;;;;;;5071522;28;20056;-71
2023/10/30 07:09:18;;;;;;;23.73;10.55;;;;;;;;;;5073178;28;20044;-71
2023/10/30 07:11:46;;;;;;;17.80;9.63;;;;;;;;;;5071617;28;20082;-71
2023/10/30 07:14:13;;;;;;;20.75;9.95;;;;;;;;;;5072759;28;20131;-71
2023/10/30 07:16:41;;;;;;;21.88;9.43;;;;;;;;;;5071480;28;20502;-70
2023/10/30 07:19:27;;;;;;;17.90;9.60;;;;;;;;;;5071829;28;20473;-71
2023/10/30 07:21:54;;;;;;;16.52;9.55;;;;;;;;;;5072561;28;20497;-71
2023/10/30 07:24:22;;;;;;;15.45;8.85;;;;;;;;;;5105171;28;20040;-71
2023/10/30 07:26:49;;;;;;;16.63;9.13;;;;;;;;;;5072591;28;20045;-73
2023/10/30 07:29:17;;;;;;;17.02;8.60;;;;;;;;;;5072902;28;20093;-72
2023/10/30 07:31:44;;;;;;;14.80;7.85;;;;;;;;;;5072478;28;20072;-73
2023/10/30 07:34:12;;;;;;;18.55;8.35;;;;;;;;;;5054789;28;20131;-70
2023/10/30 07:36:40;;;;;;;15.88;7.88;;;;;;;;;;5105177;28;20047;-71
2023/10/30 07:39:09;;;;;;;13.90;7.75;;;;;;;;;;5072535;28;20423;-72
2023/10/30 07:41:38;;;;;;;17.27;9.07;;;;;;;;;;5072445;28;20040;-71
2023/10/30 07:44:07;;;;;;;12.25;8.15;;;;;;;;;;5071282;28;20047;-72
2023/10/30 07:46:35;;;;;;;13.55;7.80;;;;;;;;;;5072299;28;20072;-72
2023/10/30 07:49:07;;;;;;;16.45;8.80;;;;;;;;;;5072423;28;20574;-71
2023/10/30 07:51:36;;;;;;;13.52;7.70;;;;;;;;;;5072450;28;20403;-72
2023/10/30 07:54:03;;;;;;;14.68;7.78;;;;;;;;;;5072222;28;20494;-72
2023/10/30 07:56:31;;;;;;;15.27;7.15;;;;;;;;;;5072670;28;20044;-72
2023/10/30 07:58:59;;;;;;;18.45;7.90;;;;;;;;;;5072363;28;20451;-74
2023/10/30 08:01:27;;;;;;;16.58;7.75;;;;;;;;;;5072312;28;20048;-74
2023/10/30 08:03:55;;;;;;;12.70;6.90;;;;;;;;;;5070940;28;20041;-72
2023/10/30 08:06:24;;;;;;;15.45;6.95;;;;;;;;;;5072187;28;20120;-71
2023/10/30 08:08:52;;;;;;;11.43;7.00;;;;;;;;;;5072046;28;20051;-71
2023/10/30 08:11:19;;;;;;;11.50;6.13;;;;;;;;;;5072550;28;20394;-71
2023/10/30 08:13:47;;;;;;;14.93;5.85;;;;;;;;;;5071816;28;20040;-71
2023/10/30 08:16:15;;;;;;;8.70;5.47;;;;;;;;;;5104597;28;20045;-71
2023/10/30 08:18:42;;;;;;;17.85;6.15;;;;;;;;;;5071918;28;20066;-70
2023/10/30 08:21:10;;;;;;;14.15;4.82;;;;;;;;;;5072043;28;20402;-71
2023/10/30 08:23:39;;;;;;;12.13;5.10;;;;;;;;;;5072056;28;20474;-71
2023/10/30 08:26:07;;;;;;;11.35;4.70;;;;;;;;;;5071957;28;20500;-71
2023/10/30 08:28:35;;;;;;;8.65;4.00;;;;;;;;;;5070906;28;20037;-69
2023/10/30 08:31:04;;;;;;;11.30;4.30;;;;;;;;;;5071970;28;20513;-70
2023/10/30 08:33:32;;;;;;;13.55;4.00;;;;;;;;;;5075001;28;20037;-70
2023/10/30 08:36:00;;;;;;;7.90;3.80;;;;;;;;;;5075747;28;20048;-70
2023/10/30 08:38:27;;;;;;;14.23;4.70;;;;;;;;;;5075645;28;20032;-70
2023/10/30 08:40:55;;;;;;;12.52;4.45;;;;;;;;;;5075630;28;20051;-70
2023/10/30 08:43:23;;;;;;;9.98;4.10;;;;;;;;;;5075771;28;20439;-71
2023/10/30 08:45:50;;;;;;;14.18;5.45;;;;;;;;;;5075601;28;20557;-71
2023/10/30 08:48:18;;;;;;;18.67;4.53;;;;;;;;;;5075496;28;20037;-71
2023/10/30 08:50:46;;;;;;;11.55;3.78;;;;;;;;;;5075511;28;20041;-70
2023/10/30 08:53:15;;;;;;;10.32;4.43;;;;;;;;;;5108034;28;20041;-71
2023/10/30 08:55:43;;;;;;;8.52;3.85;;;;;;;;;;5075283;28;20486;-70
2023/10/30 08:58:10;;;;;;;11.70;4.53;;;;;;;;;;5075645;28;20044;-71
2023/10/30 09:00:38;;;;;;;9.68;4.45;;;;;;;;;;5074103;28;20036;-71
2023/10/30 09:03:06;;;;;;;8.50;4.72;;;;;;;;;;5075202;28;20044;-71
2023/10/30 09:05:35;;;;;;;10.20;4.95;;;;;;;;;;5075062;28;20120;-69
2023/10/30 09:08:03;;;;;;;13.20;5.13;;;;;;;;;;5075173;28;20114;-70
2023/10/30 09:10:32;;;;;;;10.45;3.40;;;;;;;;;;5075240;28;20047;-70
2023/10/30 09:13:00;;;;;;;7.55;3.35;;;;;;;;;;5075074;28;20132;-70
2023/10/30 09:15:31;;;;;;;10.63;3.60;;;;;;;;;;5075128;28;20068;-70
2023/10/30 09:18:05;;;;;;;7.13;3.13;;;;;;;;;;5077671;28;20396;-71
2023/10/30 09:20:34;;;;;;;7.78;3.67;;;;;;;;;;5075289;28;20154;-69
2023/10/30 09:23:02;;;;;;;16.45;4.00;;;;;;;;;;5075716;28;20498;-71
2023/10/30 09:25:31;;;;;;;9.38;3.33;;;;;;;;;;5074699;28;20063;-69
2023/10/30 09:27:58;;;;;;;6.43;3.50;;;;;;;;;;5074798;28;20040;-70
2023/10/30 09:30:32;;;;;;;12.45;4.00;;;;;;;;;;5074702;28;20037;-70
2023/10/30 09:33:00;;;;;;;10.07;3.90;;;;;;;;;;5073428;28;20040;-71
2023/10/30 09:35:31;;;;;;;7.20;3.92;;;;;;;;;;5074585;28;20044;-70
2023/10/30 09:37:59;;;;;;;9.68;4.30;;;;;;;;;;5074784;28;20041;-71
2023/10/30 09:40:27;;;;;;;8.07;4.50;;;;;;;;;;5074442;28;20055;-70
2023/10/30 09:42:55;;;;;;;8.20;3.33;;;;;;;;;;5072997;28;20045;-72
2023/10/30 09:45:24;;;;;;;9.13;4.18;;;;;;;;;;5074386;28;20161;-71
2023/10/30 09:47:53;;;;;;;12.93;4.18;;;;;;;;;;5074482;28;20090;-71
2023/10/30 09:50:21;;;;;;;17.35;4.95;;;;;;;;;;5107021;28;20040;-70
2023/10/30 09:52:49;;;;;;;13.52;3.90;;;;;;;;;;5074086;28;20040;-71
2023/10/30 09:55:20;;;;;;;7.95;4.30;;;;;;;;;;5074038;28;20098;-70
2023/10/30 09:57:48;;;;;;;11.00;4.05;;;;;;;;;;5074248;28;20044;-70
2023/10/30 10:00:16;;;;;;;14.82;4.07;;;;;;;;;;5073907;28;20040;-70
2023/10/30 10:02:44;;;;;;;11.13;4.50;;;;;;;;;;5072918;28;20048;-70
2023/10/30 10:05:13;;;;;;;9.45;4.15;;;;;;;;;;5073820;28;20037;-70
2023/10/30 10:07:41;;;;;;;10.27;4.45;;;;;;;;;;5072591;28;20052;-70
2023/10/30 10:10:09;;;;;;;16.88;5.40;;;;;;;;;;5073735;28;20040;-70
2023/10/30 10:12:37;;;;;;;8.95;4.50;;;;;;;;;;5073843;28;20123;-69
2023/10/30 10:15:08;;;;;;;16.45;4.43;;;;;;;;;;5073718;28;20504;-71
2023/10/30 10:17:42;;;;;;;10.63;5.25;;;;;;;;;;5073972;28;20037;-69
2023/10/30 10:20:10;;;;;;;11.45;4.68;;;;;;;;;;5073672;28;20044;-70
2023/10/30 10:22:39;;;;;;;12.57;4.53;;;;;;;;;;5073836;28;20437;-70
2023/10/30 10:25:11;;;;;;;11.13;4.38;;;;;;;;;;5073622;28;20046;-70
2023/10/30 10:27:40;;;;;;;6.72;3.90;;;;;;;;;;5073305;28;20051;-70
2023/10/30 10:30:09;;;;;;;11.05;4.85;;;;;;;;;;5073486;28;20040;-71
2023/10/30 10:32:37;;;;;;;12.90;4.60;;;;;;;;;;5073448;28;20412;-70
2023/10/30 10:35:06;;;;;;;12.43;4.43;;;;;;;;;;5073369;28;20071;-71
2023/10/30 10:37:34;;;;;;;12.48;4.80;;;;;;;;;;5073540;28;20049;-71
2023/10/30 10:40:05;;;;;;;9.82;4.88;;;;;;;;;;5073217;28;20048;-71
2023/10/30 10:42:36;;;;;;;13.98;5.20;;;;;;;;;;5073288;28;20087;-70
2023/10/30 10:45:04;;;;;;;11.05;4.57;;;;;;;;;;5055663;28;20048;-70
2023/10/30 10:47:32;;;;;;;12.43;4.70;;;;;;;;;;5073016;28;20063;-70
2023/10/30 10:49:59;;;;;;;12.15;4.70;;;;;;;;;;5073411;28;20102;-71
2023/10/30 10:52:28;;;;;;;16.95;5.18;;;;;;;;;;5105621;28;20457;-69
2023/10/30 10:55:03;;;;;;;12.55;4.60;;;;;;;;;;5072437;28;20482;-70
2023/10/30 10:58:04;;;;;;;10.90;5.18;;;;;;;;;;5072797;28;20116;-69
2023/10/30 11:00:33;;;;;;;11.00;4.70;;;;;;;;;;5050255;28;20051;-69
2023/10/30 11:03:02;;;;;;;11.32;4.13;;;;;;;;;;5072857;28;20560;-70
2023/10/30 11:05:30;;;;;;;14.20;5.05;;;;;;;;;;5072798;28;20032;-69
2023/10/30 11:08:00;;;;;;;26.45;5.50;;;;;;;;;;5071421;28;20040;-70
2023/10/30 11:10:33;;;;;;;99.10;12.70;;;;;;;;;;5073024;28;20075;-70
2023/10/30 11:13:00;;;;;;;20.95;5.10;;;;;;;;;;5073284;28;20040;-70
2023/10/30 11:15:51;;;;;;;15.00;4.70;;;;;;;;;;5071491;28;20148;-70
2023/10/30 11:18:21;;;;;;;32.60;6.75;;;;;;;;;;5067335;28;20509;-70
2023/10/30 11:20:54;;;;;;;13.35;4.32;;;;;;;;;;5072524;28;20406;-70
2023/10/30 11:23:46;;;;;;;12.32;5.35;;;;;;;;;;5071488;28;20037;-71
2023/10/30 11:26:46;;;;;;;10.23;4.40;;;;;;;;;;5067447;28;20049;-71
2023/10/30 11:29:20;;;;;;;7.78;4.10;;;;;;;;;;5049261;28;20048;-70
2023/10/30 11:31:56;;;;;;;11.05;3.75;;;;;;;;;;5072201;28;20474;-71
2023/10/30 11:34:29;;;;;;;9.80;3.75;;;;;;;;;;5072196;28;20040;-70
2023/10/30 11:37:03;;;;;;;9.63;3.75;;;;;;;;;;5072278;28;20051;-73
2023/10/30 11:39:34;;;;;;;8.38;3.92;;;;;;;;;;5071320;28;20068;-73
2023/10/30 11:42:01;;;;;;;13.25;4.55;;;;;;;;;;5072238;28;20048;-74
2023/10/30 11:44:32;;;;;;;11.52;4.53;;;;;;;;;;5072238;28;20039;-71
2023/10/30 11:47:01;;;;;;;10.68;4.72;;;;;;;;;;5071597;28;20040;-71
2023/10/30 11:49:32;;;;;;;10.93;4.95;;;;;;;;;;5054748;28;20463;-70
2023/10/30 11:52:00;;;;;;;10.60;4.45;;;;;;;;;;5072353;28;20491;-71
2023/10/30 11:54:30;;;;;;;11.35;5.18;;;;;;;;;;5072064;28;20433;-70
2023/10/30 11:57:00;;;;;;;12.13;4.95;;;;;;;;;;5072594;28;20048;-71
2023/10/30 11:59:28;;;;;;;8.70;4.10;;;;;;;;;;5072297;28;20040;-71
2023/10/30 12:01:59;;;;;;;15.27;5.30;;;;;;;;;;5070995;28;20060;-71
2023/10/30 12:04:27;;;;;;;9.77;4.25;;;;;;;;;;5072253;28;20041;-70
2023/10/30 12:06:56;;;;;;;11.73;4.07;;;;;;;;;;5071520;28;20446;-71
2023/10/30 12:09:25;;;;;;;9.93;4.20;;;;;;;;;;5076114;28;20036;-71
2023/10/30 12:11:55;;;;;;;10.68;4.20;;;;;;;;;;5075085;28;20044;-70
2023/10/30 12:14:24;;;;;;;14.68;3.95;;;;;;;;;;5076107;28;20037;-70
2023/10/30 12:16:52;;;;;;;8.07;3.80;;;;;;;;;;5075920;28;20471;-70
2023/10/30 12:19:20;;;;;;;6.85;4.20;;;;;;;;;;5074554;28;20448;-70
2023/10/30 12:21:48;;;;;;;7.78;3.40;;;;;;;;;;5074576;28;20044;-71
2023/10/30 12:24:17;;;;;;;12.57;4.70;;;;;;;;;;5076182;28;20075;-71
2023/10/30 12:26:46;;;;;;;8.65;4.15;;;;;;;;;;5074462;28;20072;-71
2023/10/30 12:29:21;;;;;;;9.02;4.00;;;;;;;;;;5075950;28;20051;-71
2023/10/30 12:32:08;;;;;;;10.77;4.30;;;;;;;;;;5075770;28;20040;-71
2023/10/30 12:34:36;;;;;;;11.38;3.58;;;;;;;;;;5075731;28;20033;-71
2023/10/30 12:37:19;;;;;;;10.45;3.95;;;;;;;;;;5075347;28;20060;-71
2023/10/30 12:40:05;;;;;;;14.20;4.55;;;;;;;;;;5075636;28;20044;-71
2023/10/30 12:42:40;;;;;;;8.25;3.60;;;;;;;;;;5075533;28;20037;-71
2023/10/30 12:45:11;;;;;;;10.35;3.38;;;;;;;;;;5075528;28;20421;-71
2023/10/30 12:47:40;;;;;;;7.78;3.85;;;;;;;;;;5075266;28;20098;-71
2023/10/30 12:50:08;;;;;;;7.55;3.58;;;;;;;;;;5075752;28;20121;-71
2023/10/30 12:52:39;;;;;;;9.88;3.40;;;;;;;;;;5075379;28;20119;-72
2023/10/30 12:55:07;;;;;;;15.23;3.80;;;;;;;;;;5075246;28;20044;-72
2023/10/30 12:57:36;;;;;;;12.07;4.93;;;;;;;;;;5075292;28;20072;-70
2023/10/30 13:00:04;;;;;;;21.77;6.78;;;;;;;;;;5075202;28;20108;-70
2023/10/30 13:02:32;;;;;;;15.65;5.18;;;;;;;;;;5075157;28;20044;-71
2023/10/30 13:04:59;;;;;;;9.68;3.83;;;;;;;;;;5073865;28;20041;-70
2023/10/30 13:07:27;;;;;;;21.27;7.30;;;;;;;;;;5074929;28;20040;-69
2023/10/30 13:09:54;;;;;;;10.40;3.97;;;;;;;;;;5075135;28;20041;-71
2023/10/30 13:12:22;;;;;;;14.13;3.78;;;;;;;;;;5074946;28;20124;-70
2023/10/30 13:14:50;;;;;;;12.93;3.53;;;;;;;;;;5075317;28;20036;-70
2023/10/30 13:17:17;;;;;;;12.57;5.28;;;;;;;;;;5074780;28;20044;-70
2023/10/30 13:19:45;;;;;;;12.70;4.97;;;;;;;;;;5074551;28;20041;-70
2023/10/30 13:22:12;;;;;;;16.67;9.02;;;;;;;;;;5074888;28;20144;-71
2023/10/30 13:24:41;;;;;;;16.55;8.70;;;;;;;;;;5074922;28;20063;-70
2023/10/30 13:27:09;;;;;;;15.88;6.82;;;;;;;;;;5073365;28;20037;-71
2023/10/30 13:29:36;;;;;;;17.10;5.63;;;;;;;;;;5074458;28;20426;-71
2023/10/30 13:32:04;;;;;;;12.32;4.78;;;;;;;;;;5074708;28;20044;-71
2023/10/30 13:34:32;;;;;;;11.48;5.40;;;;;;;;;;5074646;28;20082;-71
2023/10/30 13:36:59;;;;;;;15.82;6.35;;;;;;;;;;5074633;28;20125;-70
2023/10/30 13:39:27;;;;;;;7.47;3.95;;;;;;;;;;5073317;28;20048;-71
2023/10/30 13:41:55;;;;;;;5.40;3.03;;;;;;;;;;5073276;28;20029;-72
2023/10/30 13:44:22;;;;;;;10.65;3.60;;;;;;;;;;5074723;28;20393;-71
2023/10/30 13:46:50;;;;;;;6.05;2.80;;;;;;;;;;5072987;28;20490;-71
2023/10/30 13:49:17;;;;;;;9.00;3.72;;;;;;;;;;5073479;28;20232;-69
2023/10/30 13:51:45;;;;;;;10.70;3.25;;;;;;;;;;5074153;28;20040;-71
2023/10/30 13:54:13;;;;;;;12.38;4.10;;;;;;;;;;5074069;28;20059;-71
2023/10/30 13:56:40;;;;;;;12.18;3.20;;;;;;;;;;5072680;28;20063;-71
2023/10/30 13:59:11;;;;;;;7.22;2.70;;;;;;;;;;5073978;28;20064;-71
2023/10/30 14:01:38;;;;;;;8.63;3.20;;;;;;;;;;5074127;28;20064;-71
2023/10/30 14:04:06;;;;;;;14.07;6.30;;;;;;;;;;5074070;28;20071;-71
2023/10/30 14:06:34;;;;;;;14.45;6.43;;;;;;;;;;5074328;28;20046;-71
2023/10/30 14:09:02;;;;;;;16.38;5.75;;;;;;;;;;5074247;28;20040;-71
2023/10/30 14:11:29;;;;;;;9.60;4.07;;;;;;;;;;5073967;28;20474;-71
2023/10/30 14:13:56;;;;;;;8.73;2.97;;;;;;;;;;5073908;28;20045;-71
2023/10/30 14:16:24;;;;;;;8.05;4.05;;;;;;;;;;5073836;28;20044;-71
2023/10/30 14:18:52;;;;;;;12.40;5.57;;;;;;;;;;5073902;28;20050;-72
2023/10/30 14:21:22;;;;;;;11.88;5.35;;;;;;;;;;5073615;28;20568;-71
2023/10/30 14:23:49;;;;;;;11.10;4.60;;;;;;;;;;5073685;28;20076;-71
2023/10/30 14:26:17;;;;;;;7.30;3.97;;;;;;;;;;5073658;28;20044;-71
2023/10/30 14:28:45;;;;;;;6.00;3.40;;;;;;;;;;5073424;28;20068;-71
2023/10/30 14:31:13;;;;;;;6.82;3.78;;;;;;;;;;5071464;28;20319;-71
2023/10/30 14:33:41;;;;;;;8.63;3.78;;;;;;;;;;5073695;28;20078;-72
2023/10/30 14:36:08;;;;;;;8.00;3.85;;;;;;;;;;5073329;28;20036;-71
2023/10/30 14:38:36;;;;;;;11.55;4.82;;;;;;;;;;5072740;28;20045;-71